Map

Track Data

SID SEASON NUMBER BASIN SUBBASIN NAME ISO_TIME NATURE LAT LON WMO_WIND WMO_PRES WMO_AGENCY TRACK_TYPE DIST2LAND LANDFALL IFLAG USA_AGENCY USA_ATCF_ID USA_LAT USA_LON USA_RECORD USA_STATUS USA_WIND USA_PRES USA_SSHS USA_R34_NE USA_R34_SE USA_R34_SW USA_R34_NW USA_R50_NE USA_R50_SE USA_R50_SW USA_R50_NW USA_R64_NE USA_R64_SE USA_R64_SW USA_R64_NW USA_POCI USA_ROCI USA_RMW USA_EYE TOKYO_LAT TOKYO_LON TOKYO_GRADE TOKYO_WIND TOKYO_PRES TOKYO_R50_DIR TOKYO_R50_LONG TOKYO_R50_SHORT TOKYO_R30_DIR TOKYO_R30_LONG TOKYO_R30_SHORT TOKYO_LAND CMA_LAT CMA_LON CMA_CAT CMA_WIND CMA_PRES HKO_LAT HKO_LON HKO_CAT HKO_WIND HKO_PRES NEWDELHI_LAT NEWDELHI_LON NEWDELHI_GRADE NEWDELHI_WIND NEWDELHI_PRES NEWDELHI_CI NEWDELHI_DP NEWDELHI_POCI REUNION_LAT REUNION_LON REUNION_TYPE REUNION_WIND REUNION_PRES REUNION_TNUM REUNION_CI REUNION_RMW REUNION_R34_NE REUNION_R34_SE REUNION_R34_SW REUNION_R34_NW REUNION_R50_NE REUNION_R50_SE REUNION_R50_SW REUNION_R50_NW REUNION_R64_NE REUNION_R64_SE REUNION_R64_SW REUNION_R64_NW BOM_LAT BOM_LON BOM_TYPE BOM_WIND BOM_PRES BOM_TNUM BOM_CI BOM_RMW BOM_R34_NE BOM_R34_SE BOM_R34_SW BOM_R34_NW BOM_R50_NE BOM_R50_SE BOM_R50_SW BOM_R50_NW BOM_R64_NE BOM_R64_SE BOM_R64_SW BOM_R64_NW BOM_ROCI BOM_POCI BOM_EYE BOM_POS_METHOD BOM_PRES_METHOD NADI_LAT NADI_LON NADI_CAT NADI_WIND NADI_PRES WELLINGTON_LAT WELLINGTON_LON WELLINGTON_WIND WELLINGTON_PRES DS824_LAT DS824_LON DS824_STAGE DS824_WIND DS824_PRES TD9636_LAT TD9636_LON TD9636_STAGE TD9636_WIND TD9636_PRES TD9635_LAT TD9635_LON TD9635_WIND TD9635_PRES TD9635_ROCI NEUMANN_LAT NEUMANN_LON NEUMANN_CLASS NEUMANN_WIND NEUMANN_PRES MLC_LAT MLC_LON MLC_CLASS MLC_WIND MLC_PRES USA_GUST BOM_GUST BOM_GUST_PER REUNION_GUST REUNION_GUST_PER USA_SEAHGT USA_SEARAD_NE USA_SEARAD_SE USA_SEARAD_SW USA_SEARAD_NW STORM_SPEED STORM_DIR
1956223N18120 1956 73 WP MM NOT_NAMED 1956-08-10 00:00:00 TS 17.5000 119.500 main 85 85 __O___________ -1 17.5000 119.500 1 23 999 15 225
1956223N18120 1956 73 WP MM NOT_NAMED 1956-08-10 03:00:00 TS 16.9626 118.947 main 123 117 __P___________ -1 16.9626 118.947 1 23 999 15 229
1956223N18120 1956 73 WP MM NOT_NAMED 1956-08-10 06:00:00 TS 16.5000 118.300 main 159 159 __O___________ -1 16.5000 118.300 1 23 999 16 240
1956223N18120 1956 73 WP MM NOT_NAMED 1956-08-10 09:00:00 TS 16.1750 117.495 main 236 236 __P___________ -1 16.1750 117.495 1 26 997 17 253
1956223N18120 1956 73 WP MM NOT_NAMED 1956-08-10 12:00:00 TS 16.0000 116.600 main 331 331 __O___________ -1 16.0000 116.600 1 29 996 17 262
1956223N18120 1956 73 WP MM NOT_NAMED 1956-08-10 15:00:00 TS 15.9472 115.708 main 427 427 __P___________ -1 15.9472 115.708 1 29 995 17 270
1956223N18120 1956 73 WP MM NOT_NAMED 1956-08-10 18:00:00 TS 16.0000 114.800 main 523 470 __O___________ -1 16.0000 114.800 1 29 995 18 274
1956223N18120 1956 73 WP MM NOT_NAMED 1956-08-10 21:00:00 TS 16.0851 113.855 main 470 392 __P___________ -1 16.0851 113.855 1 29 995 17 277
1956223N18120 1956 73 WP MM NOT_NAMED 1956-08-11 00:00:00 TS 16.2000 113.000 main 392 342 __O___________ -1 16.2000 113.000 1 29 995 15 278
1956223N18120 1956 73 WP MM NOT_NAMED 1956-08-11 03:00:00 TS 16.2919 112.347 main 335 294 __P___________ -1 16.2919 112.347 1 29 993 12 280
1956223N18120 1956 73 WP MM NOT_NAMED 1956-08-11 06:00:00 TS 16.4000 111.800 main 294 247 __O___________ -1 16.4000 111.800 1 29 992 11 283
1956223N18120 1956 73 WP MM NOT_NAMED 1956-08-11 09:00:00 TS 16.5425 111.213 main 247 198 __P___________ -1 16.5425 111.213 1 29 992 11 286
1956223N18120 1956 73 WP MM NOT_NAMED 1956-08-11 12:00:00 TS 16.7000 110.700 main 198 173 __O___________ -1 16.7000 110.700 1 29 992 9 289
1956223N18120 1956 73 WP MM NOT_NAMED 1956-08-11 15:00:00 TS 16.8346 110.342 main 169 137 __P___________ -1 16.8346 110.342 1 29 992 7 294
1956223N18120 1956 73 WP MM NOT_NAMED 1956-08-11 18:00:00 TS 17.0000 110.000 main 137 111 __O___________ -1 17.0000 110.000 1 29 992 9 296
1956223N18120 1956 73 WP MM NOT_NAMED 1956-08-11 21:00:00 TS 17.2124 109.537 main 111 89 __P___________ -1 17.2124 109.537 1 29 991 11 298
1956223N18120 1956 73 WP MM NOT_NAMED 1956-08-12 00:00:00 TS 17.5000 109.000 main 94 70 __O___________ -1 17.5000 109.000 1 29 991 12 304
1956223N18120 1956 73 WP MM NOT_NAMED 1956-08-12 03:00:00 TS 17.8996 108.453 main 70 64 __P___________ -1 17.8996 108.453 1 26 992 14 305
1956223N18120 1956 73 WP MM NOT_NAMED 1956-08-12 06:00:00 TS 18.3000 107.800 main 97 84 __O___________ -1 18.3000 107.800 1 23 994 15 296
1956223N18120 1956 73 WP MM NOT_NAMED 1956-08-12 09:00:00 TS 18.5886 106.995 main 84 43 __P___________ -1 18.5886 106.995 1 23 995 17 287
1956223N18120 1956 73 WP MM NOT_NAMED 1956-08-12 12:00:00 TS 18.8000 106.100 main 33 __O___________ -1 18.8000 106.100 1 23 996 17 284

Digital Typhoon Data and Search

About IBTrACS Database

This database is a web-friendly format of International Best Track Archive for Climate Stewardship (IBTrACS), a global best track data archive curated by NOAA dating back to 1842.

Updated: 2021-12-06